Malpensa International Airport

LIMC · Lombardy, 意大利

METAR的历史 LIMC · Malpensa International Airport

下面你可以看到过去几天的METARs。 选择年份以浏览从2007年开始的旧METAR。

2024年4月15日

时间 代码 天气 温度 能见度 天花板 METAR/SPECI
11:50
V
19 °C 10 km+ - 130° 130° 3 kt METAR LIMC 150950Z 13003KT 040V190 CAVOK 19/09 Q1014 NOSIG
11:20
V
18 °C 10 km+ - 100° 100° 4 kt METAR LIMC 150920Z 10004KT 080V160 CAVOK 18/09 Q1014 NOSIG
10:50
V
18 °C 10 km+ - 160° 160° 4 kt METAR LIMC 150850Z 16004KT 110V200 CAVOK 18/09 Q1014 NOSIG
10:20
V
18 °C 10 km+ - 150° 150° 5 kt METAR LIMC 150820Z 15005KT CAVOK 18/09 Q1014 NOSIG
09:50
V
17 °C 10 km+ - Var Var 2 kt METAR LIMC 150750Z VRB02KT CAVOK 17/08 Q1014 NOSIG
09:20
V
16 °C 10 km+ - 110° 110° 3 kt METAR LIMC 150720Z 11003KT 090V150 CAVOK 16/08 Q1014 NOSIG
08:50
V
16 °C 10 km+ - Var Var 2 kt METAR LIMC 150650Z VRB02KT CAVOK 16/09 Q1014 NOSIG
08:20
V
15 °C 10 km+ - 110° 110° 4 kt METAR LIMC 150620Z 11004KT CAVOK 15/08 Q1014 NOSIG
07:50
V
14 °C 10 km+ - Var Var 2 kt METAR LIMC 150550Z VRB02KT CAVOK 14/07 Q1015 NOSIG
07:20
V
12 °C 10 km+ - 070° 070° 4 kt METAR LIMC 150520Z 07004KT CAVOK 12/07 Q1014 NOSIG
06:50
V
12 °C 10 km+ - 070° 070° 4 kt METAR LIMC 150450Z 07004KT CAVOK 12/07 Q1015 NOSIG
06:20
V
11 °C 10 km+ - 080° 080° 2 kt METAR LIMC 150420Z 08002KT CAVOK 11/07 Q1015 NOSIG
05:50
V
12 °C 10 km+ - 020° 020° 4 kt METAR LIMC 150350Z 02004KT CAVOK 12/07 Q1015 NOSIG
05:20
V
12 °C 10 km+ - 010° 010° 5 kt METAR LIMC 150320Z 01005KT CAVOK 12/07 Q1015 NOSIG
04:50
V
14 °C 10 km+ - 030° 030° 4 kt METAR LIMC 150250Z 03004KT CAVOK 14/07 Q1016 NOSIG
04:20
V
12 °C 10 km+ - 030° 030° 4 kt METAR LIMC 150220Z 03004KT CAVOK 12/08 Q1016 NOSIG
03:50
V
12 °C 10 km+ - 030° 030° 3 kt METAR LIMC 150150Z 03003KT CAVOK 12/08 Q1016 NOSIG
03:20
V
12 °C 10 km+ - Var Var 2 kt METAR LIMC 150120Z VRB02KT CAVOK 12/08 Q1017 NOSIG
02:50
V
13 °C 10 km+ - 020° 020° 3 kt METAR LIMC 150050Z 02003KT CAVOK 13/08 Q1017 NOSIG
02:20
V
14 °C 10 km+ - 040° 040° 3 kt METAR LIMC 150020Z 04003KT CAVOK 14/08 Q1018 NOSIG
01:50
V
14 °C 10 km+ - 050° 050° 3 kt METAR LIMC 142350Z 05003KT 020V090 CAVOK 14/08 Q1018 NOSIG
00:50
V
16 °C 10 km+ - 020° 020° 4 kt METAR LIMC 142250Z 02004KT 340V040 CAVOK 16/08 Q1019 NOSIG
00:20
V
16 °C 10 km+ - Var Var 4 kt METAR LIMC 142220Z VRB04KT CAVOK 16/08 Q1019 NOSIG

2024年4月14日

时间 代码 天气 温度 能见度 天花板 METAR/SPECI
23:50
V
15 °C 10 km+ - 030° 030° 4 kt METAR LIMC 142150Z 03004KT CAVOK 15/09 Q1019 NOSIG
23:20
V
15 °C 10 km+ - Var Var 2 kt METAR LIMC 142120Z VRB02KT CAVOK 15/09 Q1019 NOSIG
22:50
V
18 °C 10 km+ - Var Var 2 kt METAR LIMC 142050Z VRB02KT CAVOK 18/07 Q1019 NOSIG
22:20
V
19 °C 10 km+ - Var Var 1 kt METAR LIMC 142020Z VRB01KT CAVOK 19/08 Q1019 NOSIG
21:50
V
20 °C 10 km+ - 130° 130° 3 kt METAR LIMC 141950Z 13003KT CAVOK 20/08 Q1019 NOSIG
21:20
V
21 °C 10 km+ - 150° 150° 3 kt METAR LIMC 141920Z 15003KT 120V190 CAVOK 21/08 Q1019 NOSIG
20:50
V
23 °C 10 km+ - 200° 200° 8 kt METAR LIMC 141850Z 20008KT 180V240 CAVOK 23/06 Q1019 NOSIG
20:20
V
23 °C 10 km+ - 200° 200° 9 kt METAR LIMC 141820Z 20009KT CAVOK 23/06 Q1019 NOSIG
19:50
V
24 °C 10 km+ - 200° 200° 8 kt METAR LIMC 141750Z 20008KT CAVOK 24/09 Q1019 NOSIG
19:20
V
26 °C 10 km+ - 200° 200° 7 kt METAR LIMC 141720Z 20007KT CAVOK 26/11 Q1019 NOSIG
18:50
V
26 °C 10 km+ - 210° 210° 5 kt METAR LIMC 141650Z 21005KT 170V250 CAVOK 26/11 Q1019 NOSIG
18:20
V
26 °C 10 km+ - 200° 200° 6 kt METAR LIMC 141620Z 20006KT CAVOK 26/10 Q1019 NOSIG
17:50
V
27 °C 10 km+ - 190° 190° 5 kt METAR LIMC 141550Z 19005KT 160V250 CAVOK 27/09 Q1019 NOSIG
17:20
V
27 °C 10 km+ - 220° 220° 6 kt METAR LIMC 141520Z 22006KT 160V270 CAVOK 27/10 Q1020 NOSIG
16:50
V
27 °C 10 km+ - 180° 180° 6 kt METAR LIMC 141450Z 18006KT 150V210 CAVOK 27/10 Q1020 NOSIG
16:20
V
27 °C 10 km+ - 190° 190° 5 kt METAR LIMC 141420Z 19005KT 120V240 CAVOK 27/11 Q1020 NOSIG
15:50
V
27 °C 10 km+ - 200° 200° 6 kt METAR LIMC 141350Z 20006KT 160V260 CAVOK 27/11 Q1021 NOSIG
15:20
V
27 °C 10 km+ - Var Var 4 kt METAR LIMC 141320Z VRB04KT CAVOK 27/12 Q1021 NOSIG
14:50
V
27 °C 10 km+ - 220° 220° 5 kt METAR LIMC 141250Z 22005KT 170V310 CAVOK 27/13 Q1022 NOSIG
14:20
V
27 °C 10 km+ - 260° 260° 6 kt METAR LIMC 141220Z 26006KT 220V330 CAVOK 27/12 Q1022 NOSIG
13:50
V
26 °C 10 km+ - 240° 240° 5 kt METAR LIMC 141150Z 24005KT 200V280 CAVOK 26/11 Q1023 NOSIG
13:20
V
26 °C 10 km+ - 260° 260° 4 kt METAR LIMC 141120Z 26004KT 180V310 CAVOK 26/11 Q1023 NOSIG
12:50
V
26 °C 10 km+ - 270° 270° 4 kt METAR LIMC 141050Z 27004KT 160V330 CAVOK 26/12 Q1023 NOSIG
12:20
V
25 °C 10 km+ - 230° 230° 4 kt METAR LIMC 141020Z 23004KT 190V280 CAVOK 25/12 Q1024 NOSIG
11:50
V
24 °C 10 km+ - Var Var 3 kt METAR LIMC 140950Z VRB03KT CAVOK 24/10 Q1024 NOSIG
11:20
V
24 °C 10 km+ - Var Var 2 kt METAR LIMC 140920Z VRB02KT CAVOK 24/08 Q1024 NOSIG
10:50
V
24 °C 10 km+ - Var Var 1 kt METAR LIMC 140850Z VRB01KT CAVOK 24/10 Q1024 NOSIG
10:20
V
23 °C 10 km+ - Var Var 1 kt METAR LIMC 140820Z VRB01KT CAVOK 23/10 Q1024 NOSIG
09:50
V
21 °C 10 km+ - Var Var 2 kt METAR LIMC 140750Z VRB02KT CAVOK 21/10 Q1024 NOSIG
09:20
V
19 °C 10 km+ - 360° 360° 6 kt METAR LIMC 140720Z 36006KT CAVOK 19/10 Q1024 NOSIG
08:50
V
18 °C 10 km+ - 010° 010° 5 kt METAR LIMC 140650Z 01005KT CAVOK 18/10 Q1024 NOSIG
08:20
V
16 °C 10 km+ - 020° 020° 5 kt METAR LIMC 140620Z 02005KT CAVOK 16/11 Q1024 NOSIG
07:50
V
14 °C 10 km+ - 010° 010° 6 kt METAR LIMC 140550Z 01006KT CAVOK 14/10 Q1024 NOSIG
07:20
V
12 °C 10 km+ - 020° 020° 5 kt METAR LIMC 140520Z 02005KT CAVOK 12/09 Q1024 NOSIG
06:50
V
12 °C 10 km+ - 010° 010° 7 kt METAR LIMC 140450Z 01007KT CAVOK 12/09 Q1024 NOSIG
06:20
V
13 °C 10 km+ - 360° 360° 7 kt METAR LIMC 140420Z 36007KT CAVOK 13/10 Q1024 NOSIG
05:50
V
12 °C 10 km+ - 360° 360° 6 kt METAR LIMC 140350Z 36006KT CAVOK 12/10 Q1024 NOSIG
05:20
V
11 °C 10 km+ - 010° 010° 4 kt METAR LIMC 140320Z 01004KT CAVOK 11/09 Q1024 NOSIG
04:50
V
12 °C 10 km+ - 360° 360° 6 kt METAR LIMC 140250Z 36006KT CAVOK 12/10 Q1024 NOSIG
04:20
V
13 °C 10 km+ - 360° 360° 5 kt METAR LIMC 140220Z 36005KT CAVOK 13/11 Q1025 NOSIG
03:50
V
13 °C 10 km+ - 010° 010° 4 kt METAR LIMC 140150Z 01004KT CAVOK 13/11 Q1025 NOSIG
03:20
V
13 °C 10 km+ - 010° 010° 7 kt METAR LIMC 140120Z 01007KT CAVOK 13/11 Q1025 NOSIG
02:50
V
13 °C 10 km+ - 020° 020° 6 kt METAR LIMC 140050Z 02006KT CAVOK 13/11 Q1025 NOSIG
02:20
V
14 °C 10 km+ - 010° 010° 5 kt METAR LIMC 140020Z 01005KT CAVOK 14/11 Q1025 NOSIG
01:50
V
15 °C 10 km+ - Var Var 2 kt METAR LIMC 132350Z VRB02KT CAVOK 15/12 Q1025 NOSIG
01:20
V
15 °C 10 km+ - 360° 360° 4 kt METAR LIMC 132320Z 36004KT CAVOK 15/12 Q1025 NOSIG
00:50
V
16 °C 10 km+ - 030° 030° 3 kt METAR LIMC 132250Z 03003KT CAVOK 16/12 Q1025 NOSIG
00:20
V
15 °C 10 km+ - 010° 010° 5 kt METAR LIMC 132220Z 01005KT CAVOK 15/12 Q1025 NOSIG

2024年4月13日

时间 代码 天气 温度 能见度 天花板 METAR/SPECI
23:50
V
16 °C 10 km+ - 020° 020° 4 kt METAR LIMC 132150Z 02004KT CAVOK 16/12 Q1025 NOSIG
23:20
V
15 °C 10 km+ - 020° 020° 4 kt METAR LIMC 132120Z 02004KT CAVOK 15/12 Q1025 NOSIG
22:50
V
16 °C 10 km+ - Var Var 2 kt METAR LIMC 132050Z VRB02KT CAVOK 16/12 Q1025 NOSIG
22:20
V
16 °C 10 km+ - 040° 040° 4 kt METAR LIMC 132020Z 04004KT 020V090 CAVOK 16/12 Q1025 NOSIG
21:50
V
18 °C 10 km+ - 030° 030° 3 kt METAR LIMC 131950Z 03003KT CAVOK 18/12 Q1025 NOSIG
21:20
V
19 °C 10 km+ - Var Var 2 kt METAR LIMC 131920Z VRB02KT CAVOK 19/12 Q1025 NOSIG
20:50
V
21 °C 10 km+ - 160° 160° 2 kt METAR LIMC 131850Z 16002KT CAVOK 21/12 Q1025 NOSIG
20:20
V
23 °C 10 km+ - 190° 190° 3 kt METAR LIMC 131820Z 19003KT CAVOK 23/12 Q1025 NOSIG
19:50
V
24 °C 10 km+ - 190° 190° 2 kt METAR LIMC 131750Z 19002KT CAVOK 24/11 Q1025 NOSIG
19:20
V
24 °C 10 km+ - 200° 200° 4 kt METAR LIMC 131720Z 20004KT CAVOK 24/11 Q1025 NOSIG
18:50
V
25 °C 10 km+ - 180° 180° 3 kt METAR LIMC 131650Z 18003KT 150V210 CAVOK 25/11 Q1025 NOSIG
18:20
V
26 °C 10 km+ - 200° 200° 3 kt METAR LIMC 131620Z 20003KT 160V250 CAVOK 26/11 Q1025 NOSIG
17:50
V
26 °C 10 km+ - 200° 200° 4 kt METAR LIMC 131550Z 20004KT 160V250 CAVOK 26/11 Q1025 NOSIG
17:20
V
26 °C 10 km+ - Var Var 2 kt METAR LIMC 131520Z VRB02KT CAVOK 26/10 Q1025 NOSIG
16:50
V
26 °C 10 km+ - 170° 170° 4 kt METAR LIMC 131450Z 17004KT 140V200 CAVOK 26/09 Q1025 NOSIG
16:20
V
26 °C 10 km+ - 240° 240° 5 kt METAR LIMC 131420Z 24005KT 190V310 CAVOK 26/12 Q1026 NOSIG
15:50
V
26 °C 10 km+ - Var Var 4 kt METAR LIMC 131350Z VRB04KT CAVOK 26/10 Q1026 NOSIG
15:20
V
26 °C 10 km+ - Var Var 3 kt METAR LIMC 131320Z VRB03KT CAVOK 26/11 Q1026 NOSIG
14:50
V
26 °C 10 km+ - 230° 230° 4 kt METAR LIMC 131250Z 23004KT 130V280 CAVOK 26/12 Q1027 NOSIG
14:20
V
25 °C 10 km+ - 230° 230° 6 kt METAR LIMC 131220Z 23006KT 190V310 CAVOK 25/11 Q1027 NOSIG
13:50
V
25 °C 10 km+ - Var Var 3 kt METAR LIMC 131150Z VRB03KT CAVOK 25/10 Q1027 NOSIG
13:20
V
25 °C 10 km+ - 230° 230° 5 kt METAR LIMC 131120Z 23005KT 140V280 CAVOK 25/10 Q1028 NOSIG
12:50
V
24 °C 10 km+ - 260° 260° 4 kt METAR LIMC 131050Z 26004KT 180V340 CAVOK 24/11 Q1028 NOSIG
12:20
V
25 °C 10 km+ - Var Var 2 kt METAR LIMC 131020Z VRB02KT CAVOK 25/11 Q1028 NOSIG
11:50
V
24 °C 10 km+ - Var Var 3 kt METAR LIMC 130950Z VRB03KT CAVOK 24/10 Q1028 NOSIG
11:20
V
22 °C 10 km+ - Var Var 3 kt METAR LIMC 130920Z VRB03KT CAVOK 22/10 Q1028 NOSIG
10:50
V
22 °C 10 km+ - Var Var 2 kt METAR LIMC 130850Z VRB02KT CAVOK 22/11 Q1028 NOSIG
10:20
V
21 °C 10 km+ - 340° 340° 4 kt METAR LIMC 130820Z 34004KT 310V040 CAVOK 21/10 Q1029 NOSIG
09:50
V
19 °C 10 km+ - 360° 360° 5 kt METAR LIMC 130750Z 36005KT CAVOK 19/09 Q1028 NOSIG
09:20
V
18 °C 10 km+ - 360° 360° 5 kt METAR LIMC 130720Z 36005KT CAVOK 18/09 Q1028 NOSIG
08:50
V
17 °C 10 km+ - 360° 360° 4 kt METAR LIMC 130650Z 36004KT CAVOK 17/09 Q1029 NOSIG
08:20
V
15 °C 10 km+ - 010° 010° 5 kt METAR LIMC 130620Z 01005KT CAVOK 15/10 Q1028 NOSIG
07:50
V
13 °C 10 km+ - 360° 360° 6 kt METAR LIMC 130550Z 36006KT CAVOK 13/10 Q1028 NOSIG
报告变更